createdAt,value
2022-09-04T00:00:26.884Z,2.78
2022-09-04T00:02:55.521Z,3.55
2022-09-04T00:05:48.821Z,2.15
2022-09-04T00:08:49.475Z,2.53
2022-09-04T00:11:55.834Z,2.42
2022-09-04T00:14:43.805Z,2.80
2022-09-04T00:17:44.757Z,2.63
2022-09-04T00:20:42.280Z,2.53
2022-09-04T00:23:36.986Z,3.00
2022-09-04T00:26:32.596Z,3.30
2022-09-04T00:29:08.028Z,2.85
2022-09-04T00:32:15.609Z,2.70
2022-09-04T00:35:03.891Z,2.47
2022-09-04T00:37:56.590Z,3.05
2022-09-04T00:40:37.639Z,2.78
2022-09-04T00:43:50.063Z,4.10
2022-09-04T00:46:31.341Z,4.60
2022-09-04T00:49:20.180Z,4.00
2022-09-04T00:51:50.204Z,4.50
2022-09-04T00:54:32.543Z,4.00
2022-09-04T00:57:41.835Z,4.43
2022-09-04T01:00:19.130Z,4.03
2022-09-04T01:03:09.965Z,3.92
2022-09-04T01:06:21.010Z,4.47
2022-09-04T01:09:09.277Z,4.68
2022-09-04T01:11:50.075Z,4.30
2022-09-04T01:14:39.361Z,4.38
2022-09-04T01:17:51.198Z,4.78
2022-09-04T01:20:49.152Z,3.83
2022-09-04T01:23:43.157Z,3.88
2022-09-04T01:26:44.923Z,4.28
2022-09-04T01:29:27.117Z,3.55
2022-09-04T01:32:09.471Z,3.97
2022-09-04T01:34:51.010Z,3.88
2022-09-04T01:37:27.922Z,4.28
2022-09-04T01:40:19.706Z,3.88
2022-09-04T01:42:57.897Z,3.42
2022-09-04T01:46:05.263Z,3.35
2022-09-04T01:48:38.333Z,3.70
2022-09-04T01:51:21.298Z,3.67
2022-09-04T01:54:24.848Z,4.03
2022-09-04T01:57:10.783Z,3.05
2022-09-04T01:59:55.659Z,2.78
2022-09-04T02:02:53.696Z,3.13
2022-09-04T02:05:30.439Z,3.30
2022-09-04T02:08:25.418Z,2.97
2022-09-04T02:10:53.510Z,3.25
2022-09-04T02:13:29.665Z,3.28
2022-09-04T02:16:18.400Z,3.58
2022-09-04T02:19:16.007Z,3.03
2022-09-04T02:22:08.938Z,2.80
2022-09-04T02:24:58.600Z,3.13
2022-09-04T02:27:43.620Z,3.05
2022-09-04T02:30:13.869Z,3.20
2022-09-04T02:32:46.902Z,3.20
2022-09-04T02:35:35.154Z,3.60
2022-09-04T02:38:20.641Z,2.72
2022-09-04T02:40:59.843Z,3.80
2022-09-04T02:43:39.792Z,3.03
2022-09-04T02:46:32.992Z,3.13
2022-09-04T02:49:03.611Z,3.45
2022-09-04T02:52:11.752Z,3.85
2022-09-04T02:55:03.902Z,2.60
2022-09-04T02:57:55.226Z,3.05
2022-09-04T03:00:39.558Z,3.58
2022-09-04T03:03:13.537Z,3.58
2022-09-04T03:06:11.831Z,3.65
2022-09-04T03:08:47.220Z,2.90
2022-09-04T03:11:46.404Z,2.90
2022-09-04T03:14:24.821Z,2.60
2022-09-04T03:17:01.490Z,2.70
2022-09-04T03:19:37.331Z,2.95
2022-09-04T03:22:17.433Z,3.05
2022-09-04T03:24:50.340Z,2.65
2022-09-04T03:27:19.233Z,2.90
2022-09-04T03:29:58.048Z,2.92
2022-09-04T03:32:28.299Z,2.97
2022-09-04T03:35:15.741Z,3.47
2022-09-04T03:38:10.638Z,3.30
2022-09-04T03:40:45.866Z,3.45
2022-09-04T03:43:36.654Z,3.58
2022-09-04T03:46:18.239Z,4.18
2022-09-04T03:49:04.215Z,4.40
2022-09-04T03:51:37.114Z,3.25
2022-09-04T03:54:30.502Z,3.65
2022-09-04T03:57:16.209Z,2.83
2022-09-04T03:59:49.463Z,3.47
2022-09-04T04:02:19.513Z,4.53
2022-09-04T04:05:03.037Z,5.43
2022-09-04T04:08:03.719Z,4.40
2022-09-04T04:10:58.991Z,3.85
2022-09-04T04:13:44.221Z,4.97
2022-09-04T04:16:32.436Z,4.40
2022-09-04T04:19:22.024Z,4.53
2022-09-04T04:22:01.025Z,5.38
2022-09-04T04:24:54.444Z,4.90
2022-09-04T04:27:32.483Z,4.13
2022-09-04T04:30:06.026Z,4.32
2022-09-04T04:32:52.959Z,4.75
2022-09-04T04:35:32.657Z,3.95
2022-09-04T04:38:21.137Z,4.35
2022-09-04T04:41:22.326Z,3.45
2022-09-04T04:43:58.411Z,5.18
2022-09-04T04:46:51.191Z,4.65
2022-09-04T04:49:37.356Z,4.10
2022-09-04T04:52:29.461Z,4.10
2022-09-04T04:55:11.577Z,3.72
2022-09-04T04:57:53.725Z,3.67
2022-09-04T05:00:45.671Z,3.50
2022-09-04T05:03:46.123Z,3.90
2022-09-04T05:06:26.489Z,3.35
2022-09-04T05:09:11.423Z,3.50
2022-09-04T05:11:53.139Z,3.95
2022-09-04T05:14:50.716Z,3.15
2022-09-04T05:17:36.334Z,2.78
2022-09-04T05:20:29.686Z,2.10
2022-09-04T05:23:30.627Z,1.83
2022-09-04T05:26:00.510Z,1.45
2022-09-04T05:28:45.187Z,1.38
2022-09-04T05:31:28.148Z,1.25
2022-09-04T05:34:19.255Z,1.93
2022-09-04T05:36:59.712Z,1.65
2022-09-04T05:39:33.640Z,1.45
2022-09-04T05:42:38.516Z,1.55
2022-09-04T05:45:23.451Z,1.15
2022-09-04T05:48:28.469Z,1.02
2022-09-04T05:51:21.340Z,1.42
2022-09-04T05:54:17.677Z,1.30
2022-09-04T05:57:15.427Z,1.17
2022-09-04T06:00:02.371Z,1.50
2022-09-04T06:03:15.129Z,1.02
2022-09-04T06:06:01.007Z,1.52
2022-09-04T06:08:52.468Z,0.95
2022-09-04T06:11:56.855Z,1.33
2022-09-04T06:14:31.563Z,1.33
2022-09-04T06:17:12.088Z,1.48
2022-09-04T06:19:45.849Z,1.08
2022-09-04T06:22:44.553Z,0.95
2022-09-04T06:25:57.644Z,1.23
2022-09-04T06:28:48.738Z,0.93
2022-09-04T06:31:21.942Z,1.00
2022-09-04T06:34:46.044Z,1.35
2022-09-04T06:37:26.553Z,1.10
2022-09-04T06:39:53.658Z,1.13
2022-09-04T06:42:42.987Z,1.50
2022-09-04T06:45:30.511Z,1.33
2022-09-04T06:48:14.040Z,0.75
2022-09-04T06:51:10.963Z,1.05
2022-09-04T06:53:43.488Z,1.23
2022-09-04T06:56:15.734Z,1.10
2022-09-04T06:59:01.209Z,1.23
2022-09-04T07:01:47.087Z,1.00
2022-09-04T07:04:20.506Z,1.15
2022-09-04T07:07:32.206Z,1.13
2022-09-04T07:10:10.474Z,1.00
2022-09-04T07:13:12.901Z,0.68
2022-09-04T07:16:19.535Z,0.93
2022-09-04T07:19:13.784Z,1.02
2022-09-04T07:22:00.844Z,0.85
2022-09-04T07:24:39.920Z,0.95
2022-09-04T07:27:36.338Z,1.33
2022-09-04T07:30:14.400Z,1.00
2022-09-04T07:32:47.455Z,0.98
2022-09-04T07:35:56.134Z,0.70
2022-09-04T07:38:50.790Z,0.85
2022-09-04T07:41:27.306Z,0.75
2022-09-04T07:43:58.033Z,1.40
2022-09-04T07:46:44.795Z,1.20
2022-09-04T07:49:27.107Z,1.08
2022-09-04T07:52:08.009Z,0.85
2022-09-04T07:55:15.274Z,0.88
2022-09-04T07:57:51.472Z,1.02
2022-09-04T08:00:22.937Z,1.08
2022-09-04T08:03:12.139Z,0.90
2022-09-04T08:06:14.221Z,1.10
2022-09-04T08:08:53.547Z,0.45
2022-09-04T08:11:45.690Z,0.50
2022-09-04T08:14:22.192Z,0.70
2022-09-04T08:16:56.724Z,0.70
2022-09-04T08:19:49.318Z,0.60
2022-09-04T08:22:32.043Z,0.57
2022-09-04T08:25:25.455Z,0.80
2022-09-04T08:28:20.227Z,0.60
2022-09-04T08:31:14.505Z,0.95
2022-09-04T08:34:00.152Z,0.85
2022-09-04T08:36:36.145Z,0.60
2022-09-04T08:39:25.811Z,1.13
2022-09-04T08:41:55.731Z,0.85
2022-09-04T08:44:49.488Z,0.70
2022-09-04T08:47:41.249Z,0.68
2022-09-04T08:50:34.561Z,0.90
2022-09-04T08:53:29.369Z,1.17
2022-09-04T08:56:08.440Z,0.82
2022-09-04T08:58:38.423Z,0.80
2022-09-04T09:01:11.696Z,0.88
2022-09-04T09:04:12.950Z,0.98
2022-09-04T09:07:04.581Z,0.50
2022-09-04T09:09:50.070Z,0.93
2022-09-04T09:12:44.876Z,0.80
2022-09-04T09:15:36.522Z,0.70
2022-09-04T09:18:23.019Z,0.65
2022-09-04T09:21:09.866Z,0.65
2022-09-04T09:24:07.474Z,0.90
2022-09-04T09:26:47.967Z,0.73
2022-09-04T09:29:34.284Z,0.80
2022-09-04T09:32:32.851Z,0.70
2022-09-04T09:35:03.266Z,1.00
2022-09-04T09:38:00.019Z,0.70
2022-09-04T09:41:03.692Z,0.82
2022-09-04T09:43:59.192Z,0.90
2022-09-04T09:47:01.943Z,0.70
2022-09-04T09:50:02.140Z,0.60
2022-09-04T09:53:08.247Z,0.82
2022-09-04T09:56:14.136Z,0.73
2022-09-04T09:59:03.077Z,0.57
2022-09-04T10:02:13.696Z,0.70
2022-09-04T10:05:05.307Z,1.30
2022-09-04T10:08:10.867Z,0.90
2022-09-04T10:10:46.219Z,0.63
2022-09-04T10:13:55.808Z,0.80
2022-09-04T10:16:50.809Z,0.73
2022-09-04T10:19:24.316Z,0.80
2022-09-04T10:25:21.456Z,0.85
2022-09-04T10:28:01.879Z,1.10
2022-09-04T10:35:30.840Z,1.23
2022-09-04T10:38:58.391Z,0.70
2022-09-04T10:41:50.938Z,0.65
2022-09-04T10:44:29.887Z,0.70
2022-09-04T10:47:45.441Z,0.90
2022-09-04T10:50:24.568Z,0.45
2022-09-04T10:53:21.658Z,0.70
2022-09-04T10:56:09.451Z,0.65
2022-09-04T10:59:02.596Z,0.70
2022-09-04T11:01:59.911Z,0.80
2022-09-04T11:05:08.337Z,1.10
2022-09-04T11:07:41.276Z,0.82
2022-09-04T11:10:48.965Z,0.70
2022-09-04T11:13:50.675Z,0.77
2022-09-04T11:16:50.592Z,0.90
2022-09-04T11:19:33.903Z,1.10
2022-09-04T11:22:34.806Z,0.90
2022-09-04T11:25:54.399Z,0.77
2022-09-04T11:32:38.026Z,0.47
2022-09-04T11:35:53.706Z,0.98
2022-09-04T11:39:21.993Z,1.25
2022-09-04T11:43:22.000Z,1.45
2022-09-04T11:46:16.432Z,0.98
2022-09-04T11:49:07.206Z,1.10
2022-09-04T11:52:09.711Z,0.93
2022-09-04T11:59:00.209Z,0.80
2022-09-04T12:01:52.631Z,1.05
2022-09-04T12:04:41.838Z,0.80
2022-09-04T12:07:26.159Z,1.05
2022-09-04T12:10:48.308Z,1.17
2022-09-04T12:13:29.277Z,1.30
2022-09-04T12:16:18.838Z,0.82
2022-09-04T12:18:54.709Z,0.70
2022-09-04T12:21:28.358Z,0.90
2022-09-04T12:24:20.132Z,1.02
2022-09-04T12:27:25.425Z,0.95
2022-09-04T12:30:31.888Z,1.00
2022-09-04T12:33:20.146Z,0.98
2022-09-04T12:36:05.460Z,1.05
2022-09-04T12:39:07.189Z,0.73
2022-09-04T12:42:08.946Z,0.30
2022-09-04T12:45:12.882Z,1.00
2022-09-04T12:48:01.812Z,1.05
2022-09-04T12:50:57.999Z,0.80
2022-09-04T12:53:49.269Z,1.20
2022-09-04T12:56:41.557Z,0.90
2022-09-04T12:59:16.165Z,0.90
2022-09-04T13:01:59.415Z,0.75
2022-09-04T13:05:18.099Z,0.85
2022-09-04T13:08:21.262Z,0.73
2022-09-04T13:10:53.368Z,0.73
2022-09-04T13:13:29.193Z,0.60
2022-09-04T13:16:09.380Z,1.20
2022-09-04T13:18:43.589Z,0.80
2022-09-04T13:21:23.086Z,0.80
2022-09-04T13:24:12.132Z,1.33
2022-09-04T13:26:57.126Z,0.70
2022-09-04T13:29:42.755Z,0.90
2022-09-04T13:32:26.925Z,0.70
2022-09-04T13:35:19.513Z,0.80
2022-09-04T13:38:12.710Z,0.53
2022-09-04T13:41:02.331Z,0.80
2022-09-04T13:44:00.073Z,0.85
2022-09-04T13:46:41.099Z,1.42
2022-09-04T13:49:48.128Z,1.02
2022-09-04T13:52:27.469Z,0.75
2022-09-04T13:55:03.595Z,0.90
2022-09-04T13:57:40.357Z,0.80
2022-09-04T14:00:08.242Z,0.88
2022-09-04T14:02:37.045Z,0.95
2022-09-04T14:05:18.914Z,0.95
2022-09-04T14:07:49.363Z,0.80
2022-09-04T14:10:50.973Z,1.10
2022-09-04T14:14:02.194Z,1.15
2022-09-04T14:16:36.735Z,0.65
2022-09-04T14:19:32.593Z,0.50
2022-09-04T14:22:08.726Z,0.55
2022-09-04T14:24:57.145Z,0.80
2022-09-04T14:27:31.984Z,0.98
2022-09-04T14:30:13.169Z,1.38
2022-09-04T14:32:58.004Z,0.93
2022-09-04T14:35:35.648Z,0.52
2022-09-04T14:38:41.350Z,0.68
2022-09-04T14:41:34.047Z,0.90
2022-09-04T14:44:12.890Z,0.80
2022-09-04T14:47:16.826Z,0.60
2022-09-04T14:49:48.704Z,0.73
2022-09-04T14:52:21.891Z,0.80
2022-09-04T14:54:56.076Z,0.55
2022-09-04T14:57:38.805Z,0.73
2022-09-04T15:00:09.522Z,0.60
2022-09-04T15:03:02.703Z,0.82
2022-09-04T15:05:40.856Z,0.93
2022-09-04T15:08:14.248Z,1.33
2022-09-04T15:10:50.529Z,0.93
2022-09-04T15:13:29.446Z,0.68
2022-09-04T15:16:14.365Z,0.75
2022-09-04T15:19:05.291Z,1.00
2022-09-04T15:21:32.318Z,1.17
2022-09-04T15:24:28.077Z,0.75
2022-09-04T15:27:00.646Z,1.33
2022-09-04T15:29:51.639Z,0.80
2022-09-04T15:32:22.746Z,0.90
2022-09-04T15:34:50.913Z,0.85
2022-09-04T15:37:24.707Z,1.55
2022-09-04T15:40:04.307Z,1.05
2022-09-04T15:43:12.967Z,0.82
2022-09-04T15:45:54.551Z,0.70
2022-09-04T15:48:48.367Z,0.88
2022-09-04T15:51:49.902Z,0.63
2022-09-04T15:54:34.494Z,0.63
2022-09-04T15:57:10.717Z,1.10
2022-09-04T16:00:07.079Z,1.60
2022-09-04T16:03:30.488Z,0.98
2022-09-04T16:06:36.793Z,0.73
2022-09-04T16:09:33.173Z,0.98
2022-09-04T16:12:57.845Z,0.85
2022-09-04T16:15:35.978Z,1.20
2022-09-04T16:18:18.008Z,1.13
2022-09-04T16:21:21.865Z,1.38
2022-09-04T16:24:33.096Z,1.15
2022-09-04T16:27:04.914Z,1.75
2022-09-04T16:33:38.144Z,1.20
2022-09-04T16:36:16.105Z,1.30
2022-09-04T16:39:14.027Z,1.27
2022-09-04T16:41:48.355Z,1.60
2022-09-04T16:44:22.062Z,0.80
2022-09-04T16:47:14.995Z,1.05
2022-09-04T16:49:57.645Z,1.63
2022-09-04T16:53:13.362Z,1.58
2022-09-04T16:56:04.649Z,1.50
2022-09-04T16:58:56.835Z,1.25
2022-09-04T17:01:44.894Z,1.55
2022-09-04T17:04:21.409Z,1.58
2022-09-04T17:07:12.258Z,1.40
2022-09-04T17:09:55.005Z,1.20
2022-09-04T17:12:30.748Z,1.35
2022-09-04T17:15:26.612Z,1.35
2022-09-04T17:17:58.987Z,1.10
2022-09-04T17:22:26.336Z,2.03
2022-09-04T17:29:13.985Z,1.50
2022-09-04T17:29:15.598Z,1.17
2022-09-04T17:30:53.363Z,1.90
2022-09-04T17:40:32.567Z,1.92
2022-09-04T17:40:40.193Z,1.40
2022-09-04T17:41:34.930Z,1.55
2022-09-04T17:43:35.256Z,2.13
2022-09-04T17:48:45.623Z,2.20
2022-09-04T17:51:23.556Z,1.35
2022-09-04T17:53:58.828Z,2.70
2022-09-04T17:56:38.782Z,2.25
2022-09-04T18:00:22.021Z,1.70
2022-09-04T18:03:06.295Z,1.73
2022-09-04T18:05:53.813Z,1.90
2022-09-04T18:08:39.911Z,1.60
2022-09-04T18:11:29.043Z,2.20
2022-09-04T18:14:03.374Z,2.00
2022-09-04T18:16:36.862Z,1.98
2022-09-04T18:19:25.380Z,2.03
2022-09-04T18:22:32.036Z,2.10
2022-09-04T18:25:16.345Z,2.05
2022-09-04T18:28:26.016Z,2.47
2022-09-04T18:37:18.000Z,2.22
2022-09-04T18:37:22.457Z,2.05
2022-09-04T18:37:44.981Z,1.83
2022-09-04T18:40:20.426Z,1.90
2022-09-04T18:50:23.816Z,1.40
2022-09-04T18:50:32.090Z,1.92
2022-09-04T18:50:36.968Z,1.33
2022-09-04T18:51:58.309Z,1.83
2022-09-04T18:54:41.892Z,1.70
2022-09-04T18:57:40.647Z,2.67
2022-09-04T19:00:15.659Z,2.25
2022-09-04T19:02:53.892Z,1.80
2022-09-04T19:05:24.130Z,1.40
2022-09-04T19:08:02.054Z,1.73
2022-09-04T19:10:51.179Z,1.95
2022-09-04T19:13:38.722Z,1.83
2022-09-04T19:16:13.312Z,1.60
2022-09-04T19:18:56.352Z,1.90
2022-09-04T19:21:34.563Z,2.10
2022-09-04T19:24:11.692Z,1.83
2022-09-04T19:26:49.969Z,1.52
2022-09-04T19:29:28.673Z,2.03
2022-09-04T19:32:24.530Z,1.45
2022-09-04T19:35:02.676Z,2.15
2022-09-04T19:41:19.826Z,2.63
2022-09-04T19:45:59.278Z,1.92
2022-09-04T19:46:04.178Z,2.25
2022-09-04T19:47:26.978Z,1.67
2022-09-04T19:53:22.273Z,2.40
2022-09-04T19:53:36.531Z,2.20
2022-09-04T19:56:12.117Z,1.95
2022-09-04T19:58:42.678Z,2.35
2022-09-04T20:01:23.062Z,1.85
2022-09-04T20:04:26.283Z,2.38
2022-09-04T20:07:16.583Z,2.10
2022-09-04T20:09:49.934Z,2.65
2022-09-04T20:12:36.986Z,2.17
2022-09-04T20:15:13.943Z,2.50
2022-09-04T20:18:08.543Z,2.40
2022-09-04T20:21:01.605Z,2.17
2022-09-04T20:23:51.734Z,1.90
2022-09-04T20:26:28.829Z,1.85
2022-09-04T20:29:04.038Z,2.25
2022-09-04T20:31:53.684Z,2.08
2022-09-04T20:34:34.108Z,2.08
2022-09-04T20:37:39.761Z,2.63
2022-09-04T20:40:58.971Z,2.70
2022-09-04T20:44:00.044Z,2.10
2022-09-04T20:52:40.708Z,1.95
2022-09-04T20:52:54.892Z,2.17
2022-09-04T20:53:58.495Z,1.60
2022-09-04T21:00:23.606Z,1.70
2022-09-04T21:03:07.586Z,2.08
2022-09-04T21:03:28.111Z,2.93
2022-09-04T21:06:26.576Z,2.40
2022-09-04T21:09:14.801Z,2.53
2022-09-04T21:11:50.689Z,1.98
2022-09-04T21:14:55.748Z,2.10
2022-09-04T21:18:05.091Z,2.20
2022-09-04T21:20:34.849Z,1.98
2022-09-04T21:23:41.739Z,1.73
2022-09-04T21:26:56.796Z,1.40
2022-09-04T21:29:42.696Z,1.10
2022-09-04T21:32:24.299Z,1.85
2022-09-04T21:35:05.541Z,2.35
2022-09-04T21:38:00.438Z,1.80
2022-09-04T21:41:04.468Z,1.90
2022-09-04T21:43:50.668Z,1.35
2022-09-04T21:46:33.111Z,1.50
2022-09-04T21:49:26.253Z,1.80
2022-09-04T21:52:56.089Z,1.88
2022-09-04T21:57:04.112Z,2.03
2022-09-04T22:02:26.651Z,1.87
2022-09-04T22:02:38.660Z,2.13
2022-09-04T22:13:31.762Z,2.13
2022-09-04T22:13:42.494Z,1.98
2022-09-04T22:14:34.475Z,1.90
2022-09-04T22:17:04.218Z,1.35
2022-09-04T22:19:48.265Z,1.73
2022-09-04T22:22:40.016Z,1.42
2022-09-04T22:25:07.221Z,1.67
2022-09-04T22:28:07.914Z,1.58
2022-09-04T22:30:51.990Z,1.75
2022-09-04T22:37:00.902Z,1.50
2022-09-04T22:39:43.372Z,1.75
2022-09-04T22:42:20.618Z,2.20
2022-09-04T22:45:21.574Z,1.63
2022-09-04T22:48:22.538Z,1.63
2022-09-04T22:51:23.220Z,2.08
2022-09-04T22:54:09.031Z,2.55
2022-09-04T22:56:48.576Z,1.80
2022-09-04T22:59:46.644Z,1.52
2022-09-04T23:02:16.801Z,2.20
2022-09-04T23:05:21.899Z,1.75
2022-09-04T23:13:43.117Z,1.73
2022-09-04T23:13:48.669Z,2.05
2022-09-04T23:17:24.099Z,1.73
2022-09-04T23:26:37.083Z,2.08
2022-09-04T23:26:44.645Z,1.83
2022-09-04T23:27:03.138Z,2.57
2022-09-04T23:29:44.523Z,3.00
2022-09-04T23:32:13.369Z,3.35
2022-09-04T23:35:14.775Z,3.40
2022-09-04T23:38:01.265Z,3.08
2022-09-04T23:40:52.321Z,2.47
2022-09-04T23:43:42.431Z,2.00
2022-09-04T23:46:45.958Z,3.00
2022-09-04T23:49:38.507Z,2.95
2022-09-04T23:52:27.425Z,2.42
2022-09-04T23:55:39.934Z,2.10
2022-09-04T23:59:00.797Z,2.17
